Strona główna
METAR-TAF:

METAR-TAF

Lotnisko :

Port lotniczy Bukareszt-Otopeni

Bukareszt, Rumunia

Szerokość geograficzna: 44-33N, Długość geograficzna: 026-06E, wysokość: 95 m

Aktualna obserwacja pogody

Raport powstał 39 minut temu, godzina 11:30 UTC
Wiatr 9 kt od północny wschód, zmienny między północno-północny wschód i wschód
Temperatura 32°C
Wilgotność 36%
Ciśnienie 1014 hPa
Widzialność 10 km lub więcej
Brak chmur poniżej 1500 m i brak chmur cumulonimbus

METAR: LROP 161130Z 05009KT 020V080 CAVOK 32/15 Q1014 NOSIG

czas: 15:09 (12:09 UTC)

Prognoza

Raport powstał 1 godzina i 9 minut temu, godzina 11:00 UTC
Prognoza ważna od 16 godzina 12 UTC do 17 godzina 12 UTC
Wiatr 8 kt od północny wschód
Widzialność 10 km lub więcej
Brak chmur poniżej 1500 m i brak chmur cumulonimbus

TAF: LROP 161100Z 1612/1712 05008KT CAVOK

Obserwacja i prognoza pogody dla ponad 4000 lotnisk (raport METAR i TAF).

Dostępne stacje oznaczono żółtymi i czerwonymi punktami na mapie.

Najedź kursorem aby zobaczyć nazwę stacji.

Kliknij aby zobaczyć obserwacje i prognozy pogody.

Aby zmienić mapę: kliknij na zielony przycisk z czarnym krzyżykiem, aby powiększyć; na zielony przycisk z myślnikiem, aby pomniejszyć; na zielone strzałki, aby przejść do map sąsiednich.


METAR-TAF: